Time;durP1;ratioP1;P1;durP2;ratioP2;P2;SDS_P1;SDS_P2;PMS_P1;PMS_P2;Temp;Humidity;BMP_temperature;BMP_pressure;BME280_temperature;BME280_humidity;BME280_pressure;Samples;Min_cycle;Max_cycle;Signal;HPM_P1;HPM_P2
2022/05/14 00:01:05;;;;;;;3.17;1.50;;;14.90;78.00;;;;;;5051531;28;20021;-70
2022/05/14 00:03:32;;;;;;;2.90;1.52;;;14.80;78.80;;;;;;5047376;28;20048;-68
2022/05/14 00:06:01;;;;;;;4.60;1.60;;;14.90;78.40;;;;;;5041333;28;20036;-70
2022/05/14 00:08:29;;;;;;;2.75;1.88;;;14.80;78.70;;;;;;5045254;28;20030;-71
2022/05/14 00:13:39;;;;;;;3.40;1.75;;;14.70;78.70;;;;;;5052389;28;20102;-71
2022/05/14 00:16:06;;;;;;;7.72;1.95;;;14.70;79.30;;;;;;5049499;28;20406;-68
2022/05/14 00:18:32;;;;;;;2.45;1.25;;;14.70;79.30;;;;;;5049727;28;20082;-67
2022/05/14 00:20:59;;;;;;;6.63;1.38;;;14.70;79.40;;;;;;5045803;28;21642;-68
2022/05/14 00:23:25;;;;;;;6.20;1.60;;;14.70;79.30;;;;;;5050470;28;20037;-68
2022/05/14 00:25:51;;;;;;;3.05;1.55;;;14.70;79.80;;;;;;5038318;28;20032;-69
2022/05/14 00:28:17;;;;;;;5.78;2.95;;;14.70;80.00;;;;;;5033155;28;20483;-69
2022/05/14 00:30:43;;;;;;;4.88;1.67;;;14.70;80.90;;;;;;5048316;28;20478;-69
2022/05/14 00:33:08;;;;;;;7.90;1.83;;;14.70;81.50;;;;;;5051268;28;20032;-69
2022/05/14 00:35:35;;;;;;;4.28;1.60;;;14.70;81.50;;;;;;5039532;28;20087;-70
2022/05/14 00:38:01;;;;;;;3.10;1.73;;;14.70;81.80;;;;;;5041320;28;20037;-71
2022/05/14 00:40:34;;;;;;;3.75;1.83;;;14.70;82.10;;;;;;5040607;28;20112;-71
2022/05/14 00:43:00;;;;;;;6.93;2.03;;;14.70;82.70;;;;;;5040420;28;20037;-67
2022/05/14 00:45:26;;;;;;;4.20;1.33;;;14.60;82.60;;;;;;5041009;28;20166;-68
2022/05/14 00:47:55;;;;;;;5.78;1.98;;;14.60;82.50;;;;;;5049703;28;20182;-70
2022/05/14 00:50:41;;;;;;;4.03;1.50;;;14.60;82.70;;;;;;5036373;28;20033;-69
2022/05/14 00:53:16;;;;;;;6.25;1.40;;;14.60;82.80;;;;;;5044613;28;20025;-70
2022/05/14 00:55:44;;;;;;;8.00;2.10;;;14.60;83.30;;;;;;5047294;28;20542;-71
2022/05/14 00:58:14;;;;;;;2.80;2.00;;;14.50;83.60;;;;;;5042751;28;20083;-71
2022/05/14 01:00:39;;;;;;;4.10;1.65;;;14.50;84.00;;;;;;5051385;28;20024;-69
2022/05/14 01:03:05;;;;;;;4.47;2.08;;;14.40;84.30;;;;;;5047604;28;20059;-70
2022/05/14 01:05:31;;;;;;;3.40;1.98;;;14.40;84.40;;;;;;5046269;28;20108;-68
2022/05/14 01:08:01;;;;;;;3.33;1.60;;;14.40;84.60;;;;;;5038859;28;20098;-70
2022/05/14 01:10:33;;;;;;;2.80;1.77;;;14.30;84.70;;;;;;5035377;28;20033;-72
2022/05/14 01:13:01;;;;;;;4.53;1.98;;;14.30;84.80;;;;;;5031733;28;20707;-69
2022/05/14 01:15:43;;;;;;;3.80;1.58;;;14.30;84.70;;;;;;5039950;28;20029;-71
2022/05/14 01:18:10;;;;;;;3.97;1.73;;;14.20;85.00;;;;;;5043915;28;20021;-69
2022/05/14 01:20:37;;;;;;;5.97;1.83;;;14.20;85.90;;;;;;5038264;28;20060;-69
2022/05/14 01:23:11;;;;;;;4.90;1.88;;;14.20;85.90;;;;;;5050661;28;20029;-68
2022/05/14 01:28:31;;;;;;;3.65;1.70;;;14.10;86.20;;;;;;5035684;28;20548;-69
2022/05/14 01:31:00;;;;;;;4.15;2.28;;;14.00;86.30;;;;;;5045124;28;20041;-68
2022/05/14 01:33:25;;;;;;;7.93;2.13;;;14.00;86.70;;;;;;5049605;28;20025;-70
2022/05/14 01:35:51;;;;;;;3.22;1.65;;;14.00;86.90;;;;;;5042631;28;20045;-68
2022/05/14 01:38:19;;;;;;;6.75;1.88;;;14.00;86.90;;;;;;5046393;28;20087;-68
2022/05/14 01:40:44;;;;;;;4.28;1.60;;;14.00;86.90;;;;;;5032379;28;20120;-70
2022/05/14 01:43:10;;;;;;;7.05;2.00;;;14.10;86.90;;;;;;5043095;28;20108;-70
2022/05/14 01:45:36;;;;;;;3.47;2.00;;;14.10;87.20;;;;;;5045123;28;20032;-68
2022/05/14 01:48:01;;;;;;;6.10;2.10;;;14.10;87.10;;;;;;5043662;28;20040;-68
2022/05/14 01:50:27;;;;;;;6.43;2.40;;;14.10;87.10;;;;;;5036520;28;20040;-69
2022/05/14 01:52:53;;;;;;;3.78;2.08;;;14.10;87.30;;;;;;5049241;28;20075;-69
2022/05/14 01:55:19;;;;;;;5.30;2.35;;;14.20;87.00;;;;;;5047137;28;20033;-69
2022/05/14 01:57:44;;;;;;;2.95;2.10;;;14.20;86.90;;;;;;5050544;28;20475;-69
2022/05/14 02:00:13;;;;;;;5.63;2.53;;;14.20;87.10;;;;;;5044052;28;20045;-69
2022/05/14 02:02:39;;;;;;;6.97;2.40;;;14.20;87.20;;;;;;5042092;28;20036;-69
2022/05/14 02:05:05;;;;;;;3.70;1.95;;;14.20;87.20;;;;;;5035776;28;20029;-70
2022/05/14 02:07:31;;;;;;;3.50;2.25;;;14.20;87.40;;;;;;5044647;28;20044;-69
2022/05/14 02:09:57;;;;;;;3.00;2.20;;;14.20;87.70;;;;;;5048475;28;20032;-70
2022/05/14 02:12:22;;;;;;;4.55;1.90;;;14.20;87.80;;;;;;5040487;28;20191;-70
2022/05/14 02:14:48;;;;;;;7.70;2.25;;;14.10;87.90;;;;;;5038800;28;20032;-69
2022/05/14 02:17:14;;;;;;;9.75;2.28;;;14.10;88.00;;;;;;5048661;28;20037;-68
2022/05/14 02:19:39;;;;;;;3.80;2.05;;;14.20;88.00;;;;;;5043415;28;20031;-68
2022/05/14 02:22:05;;;;;;;2.42;2.08;;;14.20;88.00;;;;;;5035797;28;20042;-69
2022/05/14 02:24:32;;;;;;;5.07;2.22;;;14.10;87.90;;;;;;5044098;28;20039;-70
2022/05/14 02:26:58;;;;;;;6.13;2.78;;;14.10;87.90;;;;;;5043191;28;20030;-68
2022/05/14 02:29:24;;;;;;;6.85;2.60;;;14.10;88.00;;;;;;5047953;28;20041;-69
2022/05/14 02:31:50;;;;;;;5.63;2.42;;;14.20;88.20;;;;;;5046242;28;20048;-69
2022/05/14 02:34:16;;;;;;;4.55;2.53;;;14.10;88.30;;;;;;5041646;28;20415;-69
2022/05/14 02:36:41;;;;;;;7.45;2.83;;;14.10;88.40;;;;;;5042931;28;20025;-69
2022/05/14 02:39:07;;;;;;;5.47;2.50;;;14.10;88.50;;;;;;5042630;28;20064;-69
2022/05/14 02:41:33;;;;;;;5.30;2.85;;;14.10;88.50;;;;;;5028716;28;20036;-69
2022/05/14 02:43:58;;;;;;;6.20;2.25;;;14.10;89.30;;;;;;5062228;28;20471;-67
2022/05/14 02:46:24;;;;;;;6.47;2.25;;;14.10;88.60;;;;;;5038221;28;20088;-69
2022/05/14 02:48:49;;;;;;;12.93;2.95;;;14.10;88.60;;;;;;5044591;28;20092;-67
2022/05/14 02:51:15;;;;;;;8.07;2.70;;;14.10;88.50;;;;;;5041338;28;20029;-69
2022/05/14 02:53:40;;;;;;;5.13;2.65;;;14.10;88.50;;;;;;5043471;28;20036;-68
2022/05/14 02:56:06;;;;;;;4.47;2.72;;;14.10;88.90;;;;;;5037899;28;20029;-69
2022/05/14 03:01:15;;;;;;;3.55;2.45;;;14.10;88.90;;;;;;5047058;28;20402;-70
2022/05/14 03:03:42;;;;;;;3.92;2.35;;;14.00;89.30;;;;;;5045960;28;20029;-69
2022/05/14 03:06:08;;;;;;;4.13;2.70;;;14.00;89.30;;;;;;5040754;28;20044;-69
2022/05/14 03:08:33;;;;;;;4.82;2.08;;;14.00;89.50;;;;;;5042351;28;20029;-69
2022/05/14 03:10:59;;;;;;;3.97;2.70;;;13.90;89.40;;;;;;5029936;28;20068;-69
2022/05/14 03:13:24;;;;;;;4.68;2.10;;;14.00;89.60;;;;;;5040646;28;20029;-69
2022/05/14 03:15:50;;;;;;;5.15;2.55;;;13.90;89.60;;;;;;5047788;28;20075;-69
2022/05/14 03:18:16;;;;;;;6.30;2.97;;;13.90;89.70;;;;;;5041124;28;20033;-68
2022/05/14 03:20:42;;;;;;;4.90;2.17;;;13.90;90.00;;;;;;5037239;28;20064;-70
2022/05/14 03:23:08;;;;;;;4.25;2.63;;;13.90;90.10;;;;;;5036158;28;20056;-69
2022/05/14 03:25:33;;;;;;;3.75;2.15;;;13.90;90.10;;;;;;5036448;28;20079;-68
2022/05/14 03:27:59;;;;;;;4.47;2.25;;;13.90;90.20;;;;;;5049201;28;20037;-68
2022/05/14 03:30:24;;;;;;;3.95;2.15;;;13.80;90.20;;;;;;5038503;28;20045;-69
2022/05/14 03:32:50;;;;;;;7.90;2.20;;;13.80;90.20;;;;;;5043890;28;20033;-68
2022/05/14 03:35:16;;;;;;;4.53;2.17;;;13.80;90.40;;;;;;5042350;28;20095;-69
2022/05/14 03:37:41;;;;;;;4.32;2.08;;;13.80;90.40;;;;;;5034813;28;20391;-68
2022/05/14 03:40:09;;;;;;;3.00;1.73;;;13.80;90.50;;;;;;5038941;28;20068;-71
2022/05/14 03:42:35;;;;;;;8.90;2.13;;;13.70;90.50;;;;;;5046670;28;20024;-69
2022/05/14 03:45:00;;;;;;;3.08;2.35;;;13.70;90.40;;;;;;5041682;28;20083;-69
2022/05/14 03:47:26;;;;;;;4.40;2.08;;;13.80;90.50;;;;;;5046337;28;20108;-69
2022/05/14 03:49:51;;;;;;;4.13;2.33;;;13.70;90.40;;;;;;5047959;28;20025;-68
2022/05/14 03:52:17;;;;;;;3.70;2.25;;;13.70;90.40;;;;;;5047794;28;20029;-71
2022/05/14 03:54:45;;;;;;;5.13;2.13;;;13.70;90.50;;;;;;5044705;28;20044;-70
2022/05/14 03:57:11;;;;;;;5.45;2.38;;;13.70;90.30;;;;;;5045050;28;20120;-69
2022/05/14 03:59:36;;;;;;;3.17;2.03;;;13.70;90.40;;;;;;5038016;28;20175;-69
2022/05/14 04:02:04;;;;;;;7.40;2.33;;;13.60;90.70;;;;;;5046408;28;20056;-69
2022/05/14 04:04:30;;;;;;;3.97;1.90;;;13.60;90.60;;;;;;5047770;28;20033;-69
2022/05/14 04:06:56;;;;;;;6.22;2.45;;;13.60;90.50;;;;;;5039873;28;20032;-69
2022/05/14 04:09:22;;;;;;;6.60;2.47;;;13.60;90.70;;;;;;5044512;28;20040;-69
2022/05/14 04:11:48;;;;;;;13.13;2.08;;;13.60;90.90;;;;;;5048970;28;20033;-70
2022/05/14 04:14:13;;;;;;;3.75;1.98;;;13.60;90.70;;;;;;5048260;28;20154;-69
2022/05/14 04:16:39;;;;;;;4.30;1.83;;;13.60;90.70;;;;;;5037675;28;20107;-68
2022/05/14 04:19:05;;;;;;;3.15;2.25;;;13.60;90.70;;;;;;5047085;28;20032;-70
2022/05/14 04:21:32;;;;;;;3.53;2.60;;;13.60;90.60;;;;;;5048504;28;20025;-68
2022/05/14 04:23:59;;;;;;;3.20;2.08;;;13.60;90.70;;;;;;5046372;28;20029;-69
2022/05/14 04:26:24;;;;;;;5.55;2.60;;;13.50;90.90;;;;;;5043723;28;20087;-69
2022/05/14 04:28:50;;;;;;;5.35;2.30;;;13.60;91.10;;;;;;5038007;28;20513;-69
2022/05/14 04:31:15;;;;;;;5.35;2.28;;;13.60;90.90;;;;;;5050243;28;20033;-69
2022/05/14 04:33:41;;;;;;;4.95;2.15;;;13.60;91.00;;;;;;5048585;28;20028;-68
2022/05/14 04:36:07;;;;;;;4.00;2.28;;;13.50;91.00;;;;;;5045269;28;20036;-70
2022/05/14 04:38:32;;;;;;;4.50;1.77;;;13.50;91.20;;;;;;5046185;28;20025;-69
2022/05/14 04:40:58;;;;;;;7.18;2.50;;;13.40;91.20;;;;;;5049636;28;20395;-69
2022/05/14 04:43:24;;;;;;;7.90;2.35;;;13.50;91.30;;;;;;5053557;28;20047;-68
2022/05/14 04:45:49;;;;;;;4.05;2.50;;;13.50;91.30;;;;;;5047654;28;20471;-73
2022/05/14 04:48:15;;;;;;;5.00;2.33;;;13.50;91.30;;;;;;5052366;28;20037;-72
2022/05/14 04:50:40;;;;;;;4.80;1.98;;;13.50;91.30;;;;;;5052204;28;20475;-68
2022/05/14 04:53:06;;;;;;;7.45;1.73;;;13.50;91.20;;;;;;5048525;28;20025;-71
2022/05/14 04:55:32;;;;;;;5.80;1.88;;;13.50;91.30;;;;;;5049300;28;20041;-70
2022/05/14 04:57:59;;;;;;;4.00;2.17;;;13.60;91.20;;;;;;5045610;28;20465;-71
2022/05/14 05:00:25;;;;;;;5.05;1.88;;;13.50;91.20;;;;;;5050454;28;20033;-70
2022/05/14 05:05:34;;;;;;;4.93;1.90;;;13.60;91.10;;;;;;5038779;28;20095;-71
2022/05/14 05:08:00;;;;;;;4.03;1.98;;;13.70;91.00;;;;;;5044230;28;20031;-70
2022/05/14 05:10:26;;;;;;;5.78;2.15;;;13.70;90.80;;;;;;5033583;28;20411;-70
2022/05/14 05:12:53;;;;;;;2.75;1.70;;;13.70;90.70;;;;;;5041964;28;20094;-70
2022/05/14 05:15:18;;;;;;;2.80;1.73;;;13.80;90.80;;;;;;5048062;28;20561;-67
2022/05/14 05:17:44;;;;;;;2.92;1.83;;;13.80;90.80;;;;;;5052993;28;20108;-68
2022/05/14 05:20:10;;;;;;;7.53;2.13;;;13.90;90.50;;;;;;5043969;28;20037;-69
2022/05/14 05:22:37;;;;;;;3.17;2.20;;;13.90;90.40;;;;;;5037738;28;20108;-68
2022/05/14 05:25:07;;;;;;;3.65;2.33;;;14.00;90.30;;;;;;5047574;28;20032;-70
2022/05/14 05:27:33;;;;;;;4.30;2.05;;;14.00;90.30;;;;;;5033648;28;20119;-69
2022/05/14 05:29:59;;;;;;;6.80;1.98;;;14.00;90.40;;;;;;5033280;28;20715;-68
2022/05/14 05:32:24;;;;;;;5.82;2.60;;;14.10;90.30;;;;;;5056268;28;20059;-68
2022/05/14 05:34:51;;;;;;;2.67;2.15;;;14.10;90.00;;;;;;5051917;28;20538;-67
2022/05/14 05:37:16;;;;;;;3.08;2.10;;;14.20;90.10;;;;;;5036879;28;20029;-68
2022/05/14 05:39:42;;;;;;;4.57;2.10;;;14.20;90.20;;;;;;5043303;28;20025;-69
2022/05/14 05:42:08;;;;;;;7.95;1.90;;;14.30;90.00;;;;;;5047144;28;20466;-69
2022/05/14 05:44:33;;;;;;;2.58;1.58;;;14.30;89.60;;;;;;5046621;28;20045;-68
2022/05/14 05:47:04;;;;;;;2.60;1.50;;;14.40;89.10;;;;;;5040050;28;20037;-69
2022/05/14 05:49:29;;;;;;;3.65;1.67;;;14.40;89.00;;;;;;5040119;28;20028;-69
2022/05/14 05:51:55;;;;;;;3.42;1.77;;;14.50;88.70;;;;;;5049232;28;20490;-70
2022/05/14 05:57:04;;;;;;;7.60;1.92;;;14.70;88.30;;;;;;5042363;28;20055;-70
2022/05/14 05:59:32;;;;;;;4.32;1.63;;;14.70;88.60;;;;;;5039425;28;20037;-69
2022/05/14 06:01:58;;;;;;;7.45;2.08;;;14.80;88.10;;;;;;5044953;28;20505;-70
2022/05/14 06:04:24;;;;;;;6.28;2.75;;;14.90;88.90;;;;;;5049692;28;20040;-68
2022/05/14 06:06:51;;;;;;;2.97;2.08;;;14.90;88.60;;;;;;5052111;28;20041;-70
2022/05/14 06:09:19;;;;;;;6.63;2.42;;;14.90;88.70;;;;;;5044076;28;20048;-68
2022/05/14 06:11:45;;;;;;;5.90;2.25;;;15.00;88.30;;;;;;5037823;28;20087;-67
2022/05/14 06:14:12;;;;;;;3.20;1.75;;;15.10;88.90;;;;;;5044879;28;20045;-71
2022/05/14 06:16:38;;;;;;;3.50;2.00;;;15.10;88.20;;;;;;5038239;28;20548;-71
2022/05/14 06:19:05;;;;;;;4.60;2.17;;;15.20;87.10;;;;;;5044529;28;20040;-70
2022/05/14 06:21:30;;;;;;;3.72;1.77;;;15.20;87.40;;;;;;5051032;28;20046;-68
2022/05/14 06:23:57;;;;;;;3.47;2.08;;;15.40;88.10;;;;;;5049130;28;20437;-70
2022/05/14 06:26:23;;;;;;;2.65;1.80;;;15.50;87.30;;;;;;5051583;28;20040;-69
2022/05/14 06:28:48;;;;;;;5.18;1.80;;;15.60;87.30;;;;;;5046942;28;20100;-69
2022/05/14 06:31:16;;;;;;;6.05;2.25;;;15.70;87.30;;;;;;5044042;28;20068;-69
2022/05/14 06:33:44;;;;;;;6.97;2.20;;;15.90;86.70;;;;;;5043764;28;20146;-70
2022/05/14 06:36:10;;;;;;;2.85;1.83;;;15.90;86.10;;;;;;5038941;28;20067;-67
2022/05/14 06:38:36;;;;;;;5.68;1.73;;;16.10;85.90;;;;;;5045414;28;20033;-70
2022/05/14 06:41:11;;;;;;;4.80;1.65;;;16.20;85.10;;;;;;5036669;28;20040;-68
2022/05/14 06:43:37;;;;;;;4.97;1.85;;;16.30;85.20;;;;;;5071341;28;20066;-70
2022/05/14 06:46:03;;;;;;;3.65;1.45;;;16.50;84.80;;;;;;5044465;28;20047;-72
2022/05/14 06:48:29;;;;;;;3.33;2.03;;;16.60;85.30;;;;;;5047051;28;20040;-70
2022/05/14 06:50:56;;;;;;;10.32;2.05;;;16.70;84.50;;;;;;5040770;28;20670;-69
2022/05/14 06:53:22;;;;;;;3.97;1.60;;;16.90;83.90;;;;;;5037355;28;20047;-69
2022/05/14 06:55:53;;;;;;;4.20;1.85;;;17.00;84.60;;;;;;5042046;28;20052;-69
2022/05/14 06:58:23;;;;;;;2.53;1.70;;;17.10;84.80;;;;;;5040715;28;20033;-72
2022/05/14 07:00:49;;;;;;;5.68;2.05;;;17.20;83.90;;;;;;5033098;28;20033;-70
2022/05/14 07:08:43;;;;;;;2.85;2.08;;;17.40;82.60;;;;;;5042863;28;20079;-68
2022/05/14 07:11:10;;;;;;;3.17;1.70;;;17.50;83.50;;;;;;5045819;28;20438;-67
2022/05/14 07:13:36;;;;;;;4.18;2.20;;;17.50;82.80;;;;;;5041223;28;20035;-66
2022/05/14 07:16:02;;;;;;;3.10;1.98;;;17.60;83.30;;;;;;5045308;28;20021;-67
2022/05/14 07:18:27;;;;;;;4.85;2.15;;;17.80;82.30;;;;;;5046838;28;20176;-67
2022/05/14 07:20:54;;;;;;;3.28;1.60;;;17.80;81.80;;;;;;5044922;28;20071;-67
2022/05/14 07:23:19;;;;;;;3.75;2.03;;;17.90;82.70;;;;;;5048156;28;20029;-67
2022/05/14 07:25:45;;;;;;;5.30;2.42;;;17.90;82.20;;;;;;5048195;28;20466;-67
2022/05/14 07:28:10;;;;;;;4.20;2.45;;;18.00;82.10;;;;;;5033772;28;20122;-66
2022/05/14 07:30:36;;;;;;;4.28;2.53;;;18.10;81.70;;;;;;5032355;28;20047;-67
2022/05/14 07:33:01;;;;;;;5.13;2.15;;;18.20;81.40;;;;;;5042556;28;20029;-67
2022/05/14 07:35:28;;;;;;;6.38;2.40;;;18.30;80.10;;;;;;5032158;28;20039;-67
2022/05/14 07:37:57;;;;;;;4.60;2.00;;;18.50;80.10;;;;;;5037252;28;20112;-68
2022/05/14 07:40:26;;;;;;;6.40;2.53;;;18.60;79.30;;;;;;5047204;28;20093;-67
2022/05/14 07:43:03;;;;;;;3.30;2.00;;;18.80;79.30;;;;;;5045777;28;20029;-67
2022/05/14 07:45:34;;;;;;;7.03;2.00;;;18.90;76.80;;;;;;5045113;28;20043;-67
2022/05/14 07:48:07;;;;;;;7.72;2.03;;;18.80;75.20;;;;;;5048193;28;20527;-68
2022/05/14 07:50:32;;;;;;;13.82;2.42;;;18.90;77.10;;;;;;5039789;28;20021;-67
2022/05/14 07:52:58;;;;;;;7.53;2.53;;;18.90;75.60;;;;;;5042626;28;20033;-67
2022/05/14 07:55:24;;;;;;;8.35;2.20;;;18.90;75.00;;;;;;5039124;28;20045;-68
2022/05/14 07:57:50;;;;;;;7.53;2.10;;;19.00;75.40;;;;;;5044205;28;20037;-67
2022/05/14 08:00:16;;;;;;;6.75;2.35;;;19.00;75.20;;;;;;5046573;28;20119;-69
2022/05/14 08:02:44;;;;;;;5.15;2.00;;;19.10;75.60;;;;;;5037818;28;20037;-67
2022/05/14 08:05:11;;;;;;;5.63;2.22;;;19.30;76.20;;;;;;5045683;28;20491;-68
2022/05/14 08:07:37;;;;;;;7.28;1.80;;;19.50;74.80;;;;;;5051234;28;20673;-68
2022/05/14 08:10:05;;;;;;;5.03;2.35;;;19.60;74.00;;;;;;5039883;28;20565;-67
2022/05/14 08:12:34;;;;;;;6.80;2.60;;;19.70;73.10;;;;;;5041233;28;20041;-67
2022/05/14 08:14:59;;;;;;;4.38;1.85;;;19.70;73.30;;;;;;5042994;28;20099;-67
2022/05/14 08:17:26;;;;;;;6.75;2.20;;;19.70;72.50;;;;;;5033876;28;20495;-69
2022/05/14 08:19:52;;;;;;;5.45;1.98;;;19.70;72.60;;;;;;5049475;28;20025;-67
2022/05/14 08:25:02;;;;;;;5.38;2.17;;;19.70;71.70;;;;;;5048658;28;20059;-67
2022/05/14 08:27:27;;;;;;;6.68;2.22;;;19.80;71.40;;;;;;5052134;28;20061;-67
2022/05/14 08:29:53;;;;;;;5.72;2.70;;;19.90;71.20;;;;;;5051736;28;20386;-68
2022/05/14 08:32:20;;;;;;;7.65;2.63;;;20.00;70.60;;;;;;5052346;28;20028;-66
2022/05/14 08:34:46;;;;;;;6.47;2.70;;;20.10;69.60;;;;;;5051890;28;20039;-67
2022/05/14 08:37:11;;;;;;;5.15;2.50;;;20.20;69.20;;;;;;5048673;28;20036;-68
2022/05/14 08:39:37;;;;;;;4.55;2.38;;;20.20;69.20;;;;;;5052466;28;20021;-68
2022/05/14 08:42:06;;;;;;;7.15;3.17;;;20.20;69.40;;;;;;5045412;28;20115;-69
2022/05/14 08:44:34;;;;;;;5.97;2.70;;;20.20;68.40;;;;;;5044045;28;20043;-67
2022/05/14 08:47:04;;;;;;;7.15;2.95;;;20.10;67.50;;;;;;5048693;28;20040;-66
2022/05/14 08:49:43;;;;;;;12.02;4.38;;;20.00;68.10;;;;;;5051414;28;20557;-67
2022/05/14 08:52:23;;;;;;;4.97;2.58;;;20.10;69.70;;;;;;5051704;28;20033;-69
2022/05/14 08:54:56;;;;;;;6.93;2.40;;;20.20;68.00;;;;;;5052270;28;20033;-68
2022/05/14 08:57:36;;;;;;;10.02;2.28;;;20.30;69.10;;;;;;5043770;28;20040;-67
2022/05/14 09:00:05;;;;;;;4.18;1.88;;;20.40;67.90;;;;;;5049255;28;20029;-65
2022/05/14 09:02:35;;;;;;;6.90;2.45;;;20.60;66.50;;;;;;5043447;28;20491;-68
2022/05/14 09:05:07;;;;;;;8.65;2.95;;;20.70;65.80;;;;;;5041697;28;20037;-67
2022/05/14 09:07:32;;;;;;;4.85;2.30;;;20.70;66.00;;;;;;5032088;28;20109;-66
2022/05/14 09:09:58;;;;;;;4.85;2.78;;;20.60;66.90;;;;;;5043781;28;20604;-68
2022/05/14 09:12:31;;;;;;;10.52;3.28;;;20.70;67.60;;;;;;5050555;28;20740;-69
2022/05/14 09:15:02;;;;;;;;;;;20.90;67.20;;;;;;5045311;28;20441;-68
2022/05/14 09:17:30;;;;;;;7.80;2.60;;;21.00;67.30;;;;;;5041149;28;20255;-68
2022/05/14 09:19:57;;;;;;;6.38;2.45;;;21.20;66.50;;;;;;5045155;28;20078;-67
2022/05/14 09:22:23;;;;;;;6.30;2.33;;;21.20;66.60;;;;;;5051459;28;20471;-66
2022/05/14 09:24:53;;;;;;;5.65;2.70;;;21.30;65.30;;;;;;5051997;28;20036;-67
2022/05/14 09:27:37;;;;;;;3.90;1.70;;;21.30;65.70;;;;;;5043028;28;20041;-68
2022/05/14 09:30:08;;;;;;;7.18;1.92;;;21.40;65.70;;;;;;5050317;28;20040;-67
2022/05/14 09:32:40;;;;;;;4.85;2.17;;;21.50;67.30;;;;;;5046444;28;20033;-72
2022/05/14 09:35:16;;;;;;;6.72;2.30;;;21.60;65.30;;;;;;5047983;28;20028;-71
2022/05/14 09:37:42;;;;;;;5.00;2.00;;;21.70;65.40;;;;;;5047062;28;20112;-72
2022/05/14 09:40:22;;;;;;;5.03;2.45;;;21.80;65.10;;;;;;5050480;28;20451;-70
2022/05/14 09:42:55;;;;;;;7.07;2.30;;;22.00;65.30;;;;;;5042028;28;20033;-71
2022/05/14 09:45:31;;;;;;;;;;;22.10;64.70;;;;;;5048804;28;20106;-71
2022/05/14 09:48:07;;;;;;;9.60;2.05;;;22.30;64.30;;;;;;5039562;28;19913;-72
2022/05/14 09:50:34;;;;;;;6.28;1.83;;;22.30;64.10;;;;;;5046203;28;20056;-71
2022/05/14 09:53:05;;;;;;;5.10;2.38;;;22.30;65.50;;;;;;5039460;28;20115;-72
2022/05/14 09:56:08;;;;;;;4.78;1.77;;;22.40;63.10;;;;;;5036426;28;20339;-72
2022/05/14 09:58:55;;;;;;;5.35;2.05;;;22.50;62.70;;;;;;5042624;28;20053;-70
2022/05/14 10:01:41;;;;;;;10.27;2.15;;;22.50;62.20;;;;;;5046175;28;20124;-70
2022/05/14 10:04:33;;;;;;;3.80;1.42;;;22.50;64.80;;;;;;5042968;28;20021;-70
2022/05/14 10:07:16;;;;;;;2.67;1.33;;;22.70;62.80;;;;;;5038852;28;20029;-72
2022/05/14 10:09:46;;;;;;;3.25;1.40;;;22.60;61.80;;;;;;5045389;28;20806;-70
2022/05/14 10:12:23;;;;;;;4.13;1.60;;;22.70;64.00;;;;;;5043347;28;20029;-69
2022/05/14 10:15:19;;;;;;;8.57;2.08;;;22.80;63.00;;;;;;5042349;28;20029;-69
2022/05/14 10:18:13;;;;;;;4.13;1.52;;;22.90;61.20;;;;;;5035050;28;20435;-70
2022/05/14 10:21:02;;;;;;;7.10;1.48;;;22.90;60.50;;;;;;5038855;28;20100;-70
2022/05/14 10:27:10;;;;;;;7.68;1.75;;;23.20;61.10;;;;;;5041825;28;20079;-71
2022/05/14 10:29:54;;;;;;;5.53;1.58;;;23.30;59.60;;;;;;5037879;28;20056;-69
2022/05/14 10:32:19;;;;;;;6.93;2.42;;;23.40;59.30;;;;;;5046726;28;20110;-72
2022/05/14 10:35:17;;;;;;;3.80;1.30;;;23.60;61.10;;;;;;5049732;28;20037;-70
2022/05/14 10:38:24;;;;;;;4.93;1.30;;;23.80;59.40;;;;;;5039008;28;20426;-70
2022/05/14 10:40:56;;;;;;;4.05;1.95;;;23.90;58.80;;;;;;5017986;28;20036;-70
2022/05/14 10:43:45;;;;;;;7.47;1.77;;;23.90;58.90;;;;;;5039168;28;20049;-69
2022/05/14 10:46:14;;;;;;;5.20;1.83;;;23.80;57.50;;;;;;5044247;28;20343;-71
2022/05/14 10:48:56;;;;;;;5.75;2.00;;;23.60;57.40;;;;;;5046815;28;20033;-72
2022/05/14 10:51:29;;;;;;;10.68;1.40;;;23.50;58.90;;;;;;5044723;28;20040;-70
2022/05/14 10:53:55;;;;;;;6.05;1.45;;;23.50;60.30;;;;;;5042572;28;20580;-70
2022/05/14 10:56:26;;;;;;;5.32;1.23;;;23.50;58.50;;;;;;5042640;28;20033;-71
2022/05/14 10:59:07;;;;;;;3.85;1.13;;;23.40;57.90;;;;;;5037182;28;20029;-70
2022/05/14 11:01:52;;;;;;;3.60;1.40;;;23.50;56.40;;;;;;5034993;28;20113;-70
2022/05/14 11:04:20;;;;;;;4.22;1.30;;;23.60;57.00;;;;;;5045243;28;20128;-70
2022/05/14 11:07:08;;;;;;;3.25;1.13;;;23.60;57.20;;;;;;5043178;28;20471;-70
2022/05/14 11:09:49;;;;;;;3.97;1.35;;;23.50;57.80;;;;;;5042707;28;20025;-70
2022/05/14 11:12:21;;;;;;;6.82;1.27;;;23.60;57.50;;;;;;5041396;28;20033;-72
2022/05/14 11:14:49;;;;;;;4.38;1.05;;;23.70;58.40;;;;;;5049293;28;20032;-70
2022/05/14 11:17:26;;;;;;;5.18;1.25;;;23.90;58.20;;;;;;5037027;28;20048;-70
2022/05/14 11:20:02;;;;;;;4.28;1.33;;;24.10;56.90;;;;;;5036302;28;20029;-70
2022/05/14 11:22:32;;;;;;;3.97;1.42;;;24.10;57.10;;;;;;5041992;28;20471;-69
2022/05/14 11:25:14;;;;;;;4.55;1.23;;;24.20;56.00;;;;;;5043605;28;20086;-73
2022/05/14 11:27:41;;;;;;;4.53;1.55;;;24.20;59.40;;;;;;5048862;28;20029;-69
2022/05/14 11:30:12;;;;;;;4.15;1.40;;;24.20;56.70;;;;;;5035291;28;20039;-69
2022/05/14 11:32:45;;;;;;;6.78;1.45;;;24.00;57.10;;;;;;5049271;28;20029;-69
2022/05/14 11:35:12;;;;;;;3.10;1.20;;;23.90;57.10;;;;;;5040456;28;20040;-70
2022/05/14 11:37:44;;;;;;;3.92;1.55;;;23.90;57.30;;;;;;5051958;28;20028;-70
2022/05/14 11:40:21;;;;;;;9.15;1.58;;;24.00;59.00;;;;;;5046142;28;20032;-69
2022/05/14 11:42:52;;;;;;;10.88;1.65;;;24.20;57.00;;;;;;5045903;28;20378;-71
2022/05/14 11:45:26;;;;;;;5.32;1.52;;;24.30;58.90;;;;;;5037593;28;20146;-70
2022/05/14 11:48:06;;;;;;;3.22;0.90;;;24.60;56.70;;;;;;5041425;28;20082;-70
2022/05/14 11:51:04;;;;;;;3.95;1.33;;;24.70;55.30;;;;;;5043503;28;20082;-70
2022/05/14 11:53:48;;;;;;;8.65;1.30;;;24.80;56.00;;;;;;5048670;28;20476;-70
2022/05/14 11:56:18;;;;;;;4.22;1.25;;;24.80;58.00;;;;;;5042089;28;20483;-71
2022/05/14 11:58:58;;;;;;;5.05;1.35;;;24.90;55.90;;;;;;5047756;28;20029;-71
2022/05/14 12:01:28;;;;;;;5.28;1.17;;;25.00;57.20;;;;;;5042364;28;20024;-71
2022/05/14 12:03:54;;;;;;;7.25;1.73;;;25.00;57.80;;;;;;5044673;28;20033;-71
2022/05/14 12:06:38;;;;;;;6.00;1.27;;;24.90;55.20;;;;;;5048566;28;20041;-71
2022/05/14 12:09:22;;;;;;;3.63;1.33;;;24.80;56.60;;;;;;5039636;28;20529;-71
2022/05/14 12:12:21;;;;;;;4.45;1.40;;;24.80;55.70;;;;;;5038072;28;20033;-72
2022/05/14 12:14:47;;;;;;;3.67;1.38;;;24.70;56.00;;;;;;5042751;28;20143;-71
2022/05/14 12:17:19;;;;;;;4.97;0.88;;;24.80;56.00;;;;;;5046201;28;20439;-71
2022/05/14 12:19:53;;;;;;;8.00;1.30;;;24.90;55.90;;;;;;5035243;28;20041;-71
2022/05/14 12:22:21;;;;;;;2.90;0.85;;;24.90;55.30;;;;;;5044553;28;20639;-71
2022/05/14 12:25:12;;;;;;;7.65;1.40;;;24.60;55.10;;;;;;5052914;28;20482;-71
2022/05/14 12:27:46;;;;;;;3.80;1.20;;;24.60;57.20;;;;;;5045385;28;20049;-71
2022/05/14 12:30:12;;;;;;;5.28;0.93;;;24.50;56.30;;;;;;5048384;28;20710;-71
2022/05/14 12:35:50;;;;;;;2.50;1.02;;;24.60;56.60;;;;;;5033178;28;20422;-70
2022/05/14 12:38:25;;;;;;;4.28;1.00;;;24.80;57.00;;;;;;5046936;28;20065;-71
2022/05/14 12:40:51;;;;;;;8.63;1.58;;;25.00;56.90;;;;;;5044024;28;20542;-71
2022/05/14 12:43:17;;;;;;;5.95;1.15;;;25.10;55.40;;;;;;5032305;28;20033;-70
2022/05/14 12:45:48;;;;;;;9.18;1.65;;;25.10;55.80;;;;;;5039551;28;20536;-70
2022/05/14 12:48:14;;;;;;;3.38;1.48;;;25.10;56.90;;;;;;5041027;28;20026;-72
2022/05/14 12:50:51;;;;;;;2.92;1.05;;;25.20;55.90;;;;;;5044873;28;20028;-72
2022/05/14 12:53:17;;;;;;;6.15;1.85;;;25.20;54.80;;;;;;5051281;28;20037;-74
2022/05/14 12:55:49;;;;;;;5.82;1.70;;;25.10;55.90;;;;;;5049506;28;20103;-71
2022/05/14 12:58:16;;;;;;;;;;;25.20;56.30;;;;;;5050411;28;20032;-68
2022/05/14 13:00:49;;;;;;;6.30;1.30;;;25.40;54.80;;;;;;5047147;28;19913;-69
2022/05/14 13:03:20;;;;;;;;;;;25.60;55.00;;;;;;5052645;28;20025;-69
2022/05/14 13:05:56;;;;;;;5.88;1.00;;;25.80;56.40;;;;;;5038812;28;19921;-70
2022/05/14 13:08:24;;;;;;;5.53;1.00;;;25.90;55.80;;;;;;5046609;28;20036;-69
2022/05/14 13:10:56;;;;;;;6.65;0.93;;;26.10;54.80;;;;;;5043648;28;20037;-69
2022/05/14 13:13:35;;;;;;;3.25;1.20;;;26.10;53.70;;;;;;5049021;28;20170;-68
2022/05/14 13:16:08;;;;;;;14.25;2.83;;;25.80;54.40;;;;;;5049902;28;20556;-70
2022/05/14 13:18:39;;;;;;;7.93;1.52;;;25.80;55.90;;;;;;5053110;28;20230;-69
2022/05/14 13:21:07;;;;;;;3.95;1.10;;;25.80;54.70;;;;;;5049468;28;20033;-71
2022/05/14 13:23:35;;;;;;;4.00;1.30;;;25.60;54.10;;;;;;5050248;28;20029;-70
2022/05/14 13:26:09;;;;;;;4.38;1.30;;;25.40;55.20;;;;;;5037460;28;20036;-70
2022/05/14 13:28:37;;;;;;;5.50;1.67;;;25.30;55.20;;;;;;5044150;28;20036;-70